createdAt,value
2022-08-20T00:02:11.704Z,1.30
2022-08-20T00:04:39.501Z,1.00
2022-08-20T00:07:07.369Z,1.10
2022-08-20T00:09:36.397Z,0.98
2022-08-20T00:12:04.909Z,0.90
2022-08-20T00:14:31.967Z,0.88
2022-08-20T00:17:01.255Z,1.40
2022-08-20T00:19:28.215Z,1.23
2022-08-20T00:21:58.073Z,1.00
2022-08-20T00:24:25.768Z,1.08
2022-08-20T00:26:53.044Z,1.15
2022-08-20T00:29:20.587Z,1.25
2022-08-20T00:31:50.484Z,0.85
2022-08-20T00:34:18.020Z,1.00
2022-08-20T00:36:45.681Z,1.20
2022-08-20T00:39:12.864Z,1.10
2022-08-20T00:41:39.814Z,1.00
2022-08-20T00:44:07.373Z,1.13
2022-08-20T00:46:34.618Z,1.15
2022-08-20T00:49:03.859Z,1.10
2022-08-20T00:51:38.412Z,0.88
2022-08-20T00:54:16.197Z,1.10
2022-08-20T00:56:46.550Z,1.35
2022-08-20T00:59:16.491Z,0.90
2022-08-20T01:01:54.904Z,1.05
2022-08-20T01:04:23.065Z,1.08
2022-08-20T01:06:50.783Z,0.95
2022-08-20T01:09:17.931Z,1.10
2022-08-20T01:12:05.804Z,0.90
2022-08-20T01:14:35.453Z,1.00
2022-08-20T01:17:05.473Z,1.00
2022-08-20T01:19:36.885Z,0.70
2022-08-20T01:22:24.101Z,0.90
2022-08-20T01:24:52.442Z,0.80
2022-08-20T01:27:19.622Z,1.00
2022-08-20T01:29:46.849Z,0.98
2022-08-20T01:32:13.723Z,1.10
2022-08-20T01:34:41.718Z,0.90
2022-08-20T01:37:08.641Z,0.77
2022-08-20T01:39:36.602Z,1.20
2022-08-20T01:42:13.388Z,0.90
2022-08-20T01:44:42.603Z,1.10
2022-08-20T01:47:22.799Z,1.00
2022-08-20T01:49:54.991Z,1.02
2022-08-20T01:52:28.449Z,1.10
2022-08-20T01:54:55.434Z,1.55
2022-08-20T01:57:25.428Z,1.02
2022-08-20T01:59:55.479Z,0.93
2022-08-20T02:02:22.550Z,0.95
2022-08-20T02:04:49.490Z,1.20
2022-08-20T02:07:17.722Z,1.10
2022-08-20T02:09:44.988Z,1.20
2022-08-20T02:12:14.116Z,1.20
2022-08-20T02:14:46.034Z,0.80
2022-08-20T02:17:13.785Z,1.10
2022-08-20T02:19:42.805Z,1.10
2022-08-20T02:22:23.785Z,1.02
2022-08-20T02:24:51.562Z,0.90
2022-08-20T02:27:19.155Z,0.90
2022-08-20T02:29:46.877Z,0.90
2022-08-20T02:32:32.668Z,1.08
2022-08-20T02:35:03.826Z,1.00
2022-08-20T02:37:31.338Z,0.90
2022-08-20T02:39:58.270Z,1.02
2022-08-20T02:42:26.517Z,1.05
2022-08-20T02:44:54.591Z,1.05
2022-08-20T02:47:21.823Z,0.90
2022-08-20T02:49:48.798Z,1.00
2022-08-20T02:52:15.744Z,1.13
2022-08-20T02:54:42.784Z,1.20
2022-08-20T02:57:13.719Z,1.40
2022-08-20T02:59:41.318Z,0.88
2022-08-20T03:02:08.191Z,1.00
2022-08-20T03:04:35.065Z,1.10
2022-08-20T03:07:01.988Z,1.10
2022-08-20T03:09:28.946Z,1.25
2022-08-20T03:11:55.884Z,1.13
2022-08-20T03:14:22.903Z,1.00
2022-08-20T03:16:50.164Z,1.00
2022-08-20T03:19:17.129Z,1.10
2022-08-20T03:21:44.043Z,0.90
2022-08-20T03:24:11.007Z,0.90
2022-08-20T03:26:38.453Z,1.20
2022-08-20T03:29:05.472Z,0.98
2022-08-20T03:31:32.706Z,1.30
2022-08-20T03:33:59.935Z,1.05
2022-08-20T03:36:28.606Z,0.95
2022-08-20T03:38:57.663Z,0.90
2022-08-20T03:41:24.720Z,1.08
2022-08-20T03:43:52.923Z,1.40
2022-08-20T03:46:23.212Z,1.10
2022-08-20T03:48:56.334Z,0.90
2022-08-20T03:51:30.667Z,1.30
2022-08-20T03:53:58.307Z,1.15
2022-08-20T03:56:25.628Z,0.93
2022-08-20T03:58:53.271Z,1.20
2022-08-20T04:01:45.803Z,1.17
2022-08-20T04:04:12.427Z,1.10
2022-08-20T04:06:40.068Z,0.90
2022-08-20T04:09:09.683Z,1.05
2022-08-20T04:11:38.657Z,1.15
2022-08-20T04:14:05.770Z,1.75
2022-08-20T04:16:33.504Z,1.08
2022-08-20T04:19:02.382Z,1.30
2022-08-20T04:21:32.551Z,1.30
2022-08-20T04:24:01.172Z,1.08
2022-08-20T04:26:31.692Z,1.13
2022-08-20T04:28:59.200Z,1.10
2022-08-20T04:31:32.824Z,1.10
2022-08-20T04:34:03.562Z,1.17
2022-08-20T04:36:30.767Z,1.20
2022-08-20T04:38:57.834Z,1.20
2022-08-20T04:41:24.864Z,1.10
2022-08-20T04:43:55.570Z,1.40
2022-08-20T04:46:25.981Z,1.95
2022-08-20T04:48:53.760Z,1.20
2022-08-20T04:51:23.363Z,1.33
2022-08-20T04:53:53.967Z,1.33
2022-08-20T04:56:24.471Z,1.23
2022-08-20T04:58:52.629Z,1.38
2022-08-20T05:01:20.153Z,1.67
2022-08-20T05:03:50.353Z,1.50
2022-08-20T05:06:18.224Z,1.50
2022-08-20T05:08:45.542Z,1.77
2022-08-20T05:11:33.992Z,1.50
2022-08-20T05:14:03.171Z,1.42
2022-08-20T05:16:30.031Z,1.50
2022-08-20T05:18:57.660Z,1.42
2022-08-20T05:21:24.677Z,1.70
2022-08-20T05:23:51.477Z,1.40
2022-08-20T05:26:20.374Z,1.40
2022-08-20T05:28:58.372Z,1.40
2022-08-20T05:31:32.000Z,1.20
2022-08-20T05:34:03.302Z,1.60
2022-08-20T05:36:30.509Z,1.35
2022-08-20T05:38:57.720Z,1.65
2022-08-20T05:41:29.043Z,1.50
2022-08-20T05:43:57.253Z,1.20
2022-08-20T05:46:24.235Z,1.00
2022-08-20T05:48:51.191Z,1.00
2022-08-20T05:51:18.163Z,1.08
2022-08-20T05:53:45.037Z,1.35
2022-08-20T05:56:12.036Z,1.50
2022-08-20T05:58:39.419Z,1.20
2022-08-20T06:01:06.546Z,1.10
2022-08-20T06:03:52.338Z,1.35
2022-08-20T06:06:45.096Z,1.40
2022-08-20T06:09:07.289Z,1.42
2022-08-20T06:11:37.217Z,1.40
2022-08-20T06:14:05.041Z,1.30
2022-08-20T06:16:32.225Z,1.33
2022-08-20T06:18:59.789Z,1.20
2022-08-20T06:21:29.691Z,1.10
2022-08-20T06:23:58.078Z,1.10
2022-08-20T06:26:29.947Z,1.45
2022-08-20T06:28:58.673Z,1.23
2022-08-20T06:31:26.198Z,1.23
2022-08-20T06:33:55.573Z,1.83
2022-08-20T06:36:22.587Z,1.30
2022-08-20T06:38:49.486Z,1.23
2022-08-20T06:41:17.370Z,1.30
2022-08-20T06:43:44.405Z,1.30
2022-08-20T06:46:11.296Z,1.42
2022-08-20T06:48:38.256Z,1.50
2022-08-20T06:51:06.912Z,1.20
2022-08-20T06:53:33.958Z,1.33
2022-08-20T06:56:01.041Z,1.10
2022-08-20T06:58:37.896Z,1.50
2022-08-20T07:03:38.425Z,1.30
2022-08-20T07:06:06.016Z,1.10
2022-08-20T07:08:32.968Z,1.30
2022-08-20T07:11:00.137Z,1.25
2022-08-20T07:13:27.753Z,1.40
2022-08-20T07:15:55.004Z,1.13
2022-08-20T07:18:28.285Z,1.23
2022-08-20T07:20:57.711Z,1.40
2022-08-20T07:23:25.686Z,1.30
2022-08-20T07:25:53.023Z,1.20
2022-08-20T07:28:22.152Z,1.25
2022-08-20T07:31:12.221Z,1.40
2022-08-20T07:33:41.422Z,1.13
2022-08-20T07:36:09.273Z,1.00
2022-08-20T07:38:36.767Z,1.38
2022-08-20T07:41:05.863Z,1.08
2022-08-20T07:43:33.618Z,1.85
2022-08-20T07:46:02.202Z,1.27
2022-08-20T07:48:31.997Z,1.13
2022-08-20T07:51:01.964Z,1.50
2022-08-20T07:53:33.549Z,1.38
2022-08-20T07:56:06.130Z,1.15
2022-08-20T07:58:35.848Z,1.42
2022-08-20T08:01:03.065Z,1.52
2022-08-20T08:03:39.428Z,1.30
2022-08-20T08:06:28.329Z,1.10
2022-08-20T08:08:57.141Z,1.00
2022-08-20T08:11:24.364Z,1.40
2022-08-20T08:13:51.869Z,1.00
2022-08-20T08:16:20.553Z,1.02
2022-08-20T08:18:50.200Z,1.25
2022-08-20T08:21:18.421Z,1.40
2022-08-20T08:23:45.663Z,1.00
2022-08-20T08:26:15.930Z,1.27
2022-08-20T08:28:46.108Z,1.00
2022-08-20T08:31:13.594Z,1.23
2022-08-20T08:33:40.910Z,1.00
2022-08-20T08:36:12.343Z,1.20
2022-08-20T08:38:43.034Z,1.30
2022-08-20T08:41:12.536Z,1.10
2022-08-20T08:43:42.108Z,1.67
2022-08-20T08:46:10.423Z,1.10
2022-08-20T08:48:38.992Z,1.10
2022-08-20T08:51:12.381Z,1.25
2022-08-20T08:53:42.456Z,1.25
2022-08-20T08:56:10.154Z,1.17
2022-08-20T08:58:37.754Z,1.38
2022-08-20T09:01:09.883Z,1.20
2022-08-20T09:03:56.800Z,1.52
2022-08-20T09:06:25.419Z,0.95
2022-08-20T09:09:01.219Z,1.73
2022-08-20T09:11:29.317Z,1.20
2022-08-20T09:13:56.810Z,1.60
2022-08-20T09:16:24.638Z,0.90
2022-08-20T09:18:53.608Z,1.30
2022-08-20T09:21:20.815Z,0.98
2022-08-20T09:23:47.916Z,1.08
2022-08-20T09:26:15.106Z,0.90
2022-08-20T09:28:41.963Z,1.10
2022-08-20T09:31:08.848Z,1.25
2022-08-20T09:33:35.897Z,0.98
2022-08-20T09:36:03.157Z,1.00
2022-08-20T09:38:50.084Z,1.13
2022-08-20T09:41:17.004Z,1.13
2022-08-20T09:43:44.143Z,1.17
2022-08-20T09:46:11.537Z,1.05
2022-08-20T09:48:39.146Z,1.23
2022-08-20T09:51:06.221Z,1.10
2022-08-20T09:53:33.201Z,1.08
2022-08-20T09:56:00.338Z,0.90
2022-08-20T09:58:29.995Z,1.10
2022-08-20T10:00:57.017Z,1.13
2022-08-20T10:03:23.921Z,1.38
2022-08-20T10:05:50.811Z,1.35
2022-08-20T10:08:18.320Z,1.00
2022-08-20T10:10:45.155Z,1.00
2022-08-20T10:13:12.677Z,1.15
2022-08-20T10:15:41.918Z,1.10
2022-08-20T10:18:09.730Z,1.00
2022-08-20T10:20:39.808Z,1.00
2022-08-20T10:23:07.145Z,0.90
2022-08-20T10:25:35.117Z,1.00
2022-08-20T10:28:02.061Z,1.13
2022-08-20T10:30:28.989Z,1.10
2022-08-20T10:32:56.068Z,1.00
2022-08-20T10:35:25.998Z,0.77
2022-08-20T10:37:53.107Z,0.80
2022-08-20T10:40:20.306Z,0.90
2022-08-20T10:42:47.532Z,0.80
2022-08-20T10:45:16.313Z,1.13
2022-08-20T10:47:43.836Z,0.85
2022-08-20T10:50:12.444Z,1.02
2022-08-20T10:52:39.772Z,1.10
2022-08-20T10:55:07.281Z,1.05
2022-08-20T10:57:34.386Z,0.98
2022-08-20T11:00:01.626Z,0.98
2022-08-20T11:02:29.945Z,0.80
2022-08-20T11:04:57.107Z,1.30
2022-08-20T11:07:54.916Z,1.00
2022-08-20T11:10:13.748Z,0.70
2022-08-20T11:12:42.045Z,1.10
2022-08-20T11:15:13.040Z,0.90
2022-08-20T11:17:42.725Z,0.93
2022-08-20T11:20:10.654Z,1.10
2022-08-20T11:22:37.761Z,1.10
2022-08-20T11:25:05.737Z,0.80
2022-08-20T11:27:34.316Z,0.93
2022-08-20T11:30:01.375Z,0.95
2022-08-20T11:32:28.596Z,1.10
2022-08-20T11:34:56.058Z,0.93
2022-08-20T11:37:24.228Z,0.90
2022-08-20T11:39:51.613Z,0.90
2022-08-20T11:42:19.062Z,0.98
2022-08-20T11:44:46.130Z,0.90
2022-08-20T11:47:24.066Z,1.10
2022-08-20T11:50:01.572Z,0.90
2022-08-20T11:52:29.393Z,0.70
2022-08-20T11:54:56.754Z,0.80
2022-08-20T11:57:25.562Z,0.73
2022-08-20T11:59:53.897Z,0.75
2022-08-20T12:02:20.920Z,0.82
2022-08-20T12:04:48.902Z,0.70
2022-08-20T12:07:18.550Z,0.70
2022-08-20T12:09:50.585Z,1.00
2022-08-20T12:12:20.671Z,0.80
2022-08-20T12:14:47.659Z,0.90
2022-08-20T12:17:21.420Z,0.80
2022-08-20T12:19:48.357Z,1.27
2022-08-20T12:22:24.705Z,0.80
2022-08-20T12:24:53.615Z,0.93
2022-08-20T12:27:23.172Z,0.90
2022-08-20T12:29:53.184Z,0.95
2022-08-20T12:32:21.116Z,0.80
2022-08-20T12:34:48.355Z,0.70
2022-08-20T12:37:16.799Z,1.00
2022-08-20T12:39:46.290Z,0.70
2022-08-20T12:42:13.473Z,0.70
2022-08-20T12:44:40.640Z,0.90
2022-08-20T12:47:07.594Z,0.80
2022-08-20T12:49:35.124Z,0.82
2022-08-20T12:52:02.161Z,0.70
2022-08-20T12:54:29.416Z,0.90
2022-08-20T12:56:56.928Z,0.70
2022-08-20T12:59:26.147Z,1.10
2022-08-20T13:01:53.575Z,0.80
2022-08-20T13:04:20.992Z,0.70
2022-08-20T13:06:48.002Z,1.02
2022-08-20T13:09:15.884Z,1.00
2022-08-20T13:11:42.830Z,0.85
2022-08-20T13:14:09.706Z,1.02
2022-08-20T13:16:36.610Z,0.90
2022-08-20T13:19:03.672Z,1.08
2022-08-20T13:21:30.728Z,0.93
2022-08-20T13:23:57.772Z,0.80
2022-08-20T13:26:24.721Z,1.10
2022-08-20T13:28:51.642Z,1.00
2022-08-20T13:31:18.574Z,0.85
2022-08-20T13:33:47.079Z,0.95
2022-08-20T13:36:16.821Z,1.00
2022-08-20T13:38:43.843Z,0.75
2022-08-20T13:41:10.685Z,0.95
2022-08-20T13:43:37.617Z,1.10
2022-08-20T13:46:06.609Z,0.80
2022-08-20T13:48:34.053Z,0.82
2022-08-20T13:51:01.118Z,1.00
2022-08-20T13:53:28.135Z,1.17
2022-08-20T13:55:54.988Z,1.08
2022-08-20T13:58:22.952Z,1.30
2022-08-20T14:00:50.353Z,1.10
2022-08-20T14:03:19.866Z,1.10
2022-08-20T14:05:52.228Z,1.25
2022-08-20T14:08:21.472Z,1.00
2022-08-20T14:10:51.633Z,0.93
2022-08-20T14:13:20.003Z,0.88
2022-08-20T14:15:47.236Z,1.00
2022-08-20T14:18:14.663Z,0.93
2022-08-20T14:20:41.926Z,0.90
2022-08-20T14:23:12.240Z,1.20
2022-08-20T14:25:39.235Z,1.35
2022-08-20T14:28:18.208Z,0.80
2022-08-20T14:30:46.083Z,1.00
2022-08-20T14:33:19.550Z,1.00
2022-08-20T14:35:46.373Z,1.00
2022-08-20T14:38:13.243Z,0.93
2022-08-20T14:40:40.332Z,1.27
2022-08-20T14:43:07.297Z,0.93
2022-08-20T14:45:34.284Z,1.05
2022-08-20T14:48:01.312Z,1.10
2022-08-20T14:50:30.225Z,1.55
2022-08-20T14:52:57.977Z,1.10
2022-08-20T14:55:27.153Z,1.10
2022-08-20T14:57:54.131Z,1.23
2022-08-20T15:00:22.497Z,1.25
2022-08-20T15:02:49.519Z,1.00
2022-08-20T15:05:17.179Z,1.13
2022-08-20T15:07:45.945Z,1.45
2022-08-20T15:10:22.592Z,1.20
2022-08-20T15:12:49.536Z,1.20
2022-08-20T15:15:16.817Z,0.98
2022-08-20T15:17:46.005Z,1.02
2022-08-20T15:20:19.961Z,1.40
2022-08-20T15:22:48.736Z,1.40
2022-08-20T15:25:17.268Z,1.40
2022-08-20T15:27:45.221Z,1.20
2022-08-20T15:30:15.401Z,0.90
2022-08-20T15:32:42.602Z,1.17
2022-08-20T15:35:11.410Z,1.23
2022-08-20T15:37:42.726Z,1.42
2022-08-20T15:40:11.595Z,1.02
2022-08-20T15:42:38.832Z,1.30
2022-08-20T15:45:06.663Z,1.20
2022-08-20T15:47:37.335Z,1.20
2022-08-20T15:50:14.037Z,1.20
2022-08-20T15:52:42.620Z,1.77
2022-08-20T15:55:11.473Z,1.15
2022-08-20T15:57:50.652Z,1.20
2022-08-20T16:00:22.598Z,1.30
2022-08-20T16:03:08.813Z,1.10
2022-08-20T16:05:48.234Z,1.50
2022-08-20T16:08:30.326Z,1.30
2022-08-20T16:11:06.565Z,1.10
2022-08-20T16:13:59.856Z,1.23
2022-08-20T16:16:31.217Z,1.30
2022-08-20T16:18:58.661Z,1.48
2022-08-20T16:21:37.429Z,1.30
2022-08-20T16:24:05.918Z,1.20
2022-08-20T16:26:45.128Z,1.30
2022-08-20T16:29:12.701Z,1.40
2022-08-20T16:32:08.923Z,1.00
2022-08-20T16:34:35.806Z,1.40
2022-08-20T16:37:05.998Z,1.30
2022-08-20T16:39:37.260Z,1.58
2022-08-20T16:42:05.775Z,1.50
2022-08-20T16:44:34.801Z,1.13
2022-08-20T16:47:19.187Z,1.00
2022-08-20T16:50:06.245Z,1.45
2022-08-20T16:52:33.299Z,1.45
2022-08-20T16:55:00.357Z,1.20
2022-08-20T16:57:27.859Z,1.40
2022-08-20T17:00:11.248Z,1.30
2022-08-20T17:02:55.632Z,1.33
2022-08-20T17:05:23.611Z,1.58
2022-08-20T17:07:52.960Z,1.35
2022-08-20T17:10:24.745Z,1.83
2022-08-20T17:12:52.789Z,1.45
2022-08-20T17:15:22.504Z,1.50
2022-08-20T17:17:49.718Z,1.67
2022-08-20T17:20:20.479Z,1.40
2022-08-20T17:22:53.273Z,1.70
2022-08-20T17:25:28.912Z,1.50
2022-08-20T17:28:00.602Z,1.25
2022-08-20T17:30:35.109Z,1.50
2022-08-20T17:33:04.189Z,1.40
2022-08-20T17:35:40.164Z,1.30
2022-08-20T17:38:07.288Z,1.35
2022-08-20T17:40:40.163Z,1.50
2022-08-20T17:43:08.941Z,1.20
2022-08-20T17:45:38.989Z,1.45
2022-08-20T17:48:08.569Z,1.50
2022-08-20T17:50:38.404Z,1.52
2022-08-20T17:53:24.283Z,1.40
2022-08-20T17:55:52.755Z,1.52
2022-08-20T17:58:21.057Z,1.40
2022-08-20T18:00:47.968Z,1.77
2022-08-20T18:03:25.434Z,1.83
2022-08-20T18:06:04.953Z,1.75
2022-08-20T18:08:37.836Z,1.15
2022-08-20T18:11:28.247Z,1.33
2022-08-20T18:14:01.266Z,1.30
2022-08-20T18:16:36.832Z,1.30
2022-08-20T18:19:13.117Z,1.40
2022-08-20T18:21:50.196Z,1.30
2022-08-20T18:24:24.418Z,1.45
2022-08-20T18:27:08.731Z,1.60
2022-08-20T18:29:39.063Z,1.55
2022-08-20T18:32:07.429Z,1.60
2022-08-20T18:34:37.092Z,2.08
2022-08-20T18:37:06.754Z,1.83
2022-08-20T18:39:35.978Z,1.70
2022-08-20T18:42:07.601Z,1.60
2022-08-20T18:44:39.284Z,1.30
2022-08-20T18:49:40.328Z,1.65
2022-08-20T18:52:23.147Z,1.48
2022-08-20T18:54:51.427Z,1.48
2022-08-20T18:57:25.544Z,1.50
2022-08-20T19:00:03.238Z,1.40
2022-08-20T19:02:32.724Z,1.77
2022-08-20T19:05:02.788Z,1.48
2022-08-20T19:07:43.168Z,1.55
2022-08-20T19:10:28.265Z,1.90
2022-08-20T19:13:16.301Z,2.40
2022-08-20T19:15:46.064Z,2.13
2022-08-20T19:18:36.425Z,1.45
2022-08-20T19:21:03.901Z,1.35
2022-08-20T19:23:33.404Z,1.83
2022-08-20T19:26:01.279Z,2.00
2022-08-20T19:28:49.150Z,1.90
2022-08-20T19:31:20.683Z,1.73
2022-08-20T19:33:47.897Z,1.75
2022-08-20T19:38:50.047Z,1.80
2022-08-20T19:41:28.859Z,2.20
2022-08-20T19:44:02.068Z,2.00
2022-08-20T19:46:32.332Z,1.88
2022-08-20T19:49:15.274Z,2.10
2022-08-20T19:52:01.189Z,2.20
2022-08-20T19:54:28.863Z,1.90
2022-08-20T19:56:57.894Z,1.85
2022-08-20T19:59:26.186Z,1.85
2022-08-20T20:01:59.464Z,1.75
2022-08-20T20:04:29.736Z,1.85
2022-08-20T20:06:58.641Z,1.65
2022-08-20T20:09:27.321Z,2.05
2022-08-20T20:11:56.284Z,1.75
2022-08-20T20:14:27.804Z,1.58
2022-08-20T20:16:55.536Z,1.80
2022-08-20T20:19:26.748Z,1.75
2022-08-20T20:22:19.684Z,1.80
2022-08-20T20:24:50.900Z,2.28
2022-08-20T20:27:21.020Z,2.20
2022-08-20T20:29:49.235Z,2.13
2022-08-20T20:32:19.316Z,2.42
2022-08-20T20:34:55.287Z,2.17
2022-08-20T20:37:46.631Z,2.05
2022-08-20T20:40:23.096Z,1.98
2022-08-20T20:43:07.243Z,2.30
2022-08-20T20:45:36.838Z,2.10
2022-08-20T20:48:24.406Z,2.22
2022-08-20T20:50:51.661Z,2.55
2022-08-20T20:53:25.418Z,2.00
2022-08-20T20:56:24.664Z,2.05
2022-08-20T20:58:56.039Z,2.22
2022-08-20T21:01:28.897Z,2.00
2022-08-20T21:04:10.210Z,2.20
2022-08-20T21:06:37.185Z,1.83
2022-08-20T21:09:04.576Z,2.05
2022-08-20T21:11:31.555Z,2.60
2022-08-20T21:13:58.404Z,2.00
2022-08-20T21:16:25.403Z,1.50
2022-08-20T21:18:52.498Z,2.13
2022-08-20T21:21:19.388Z,1.73
2022-08-20T21:23:46.361Z,1.80
2022-08-20T21:26:13.383Z,2.15
2022-08-20T21:28:40.423Z,2.00
2022-08-20T21:31:07.303Z,1.85
2022-08-20T21:33:34.588Z,2.20
2022-08-20T21:36:01.490Z,1.83
2022-08-20T21:38:28.414Z,2.00
2022-08-20T21:40:55.413Z,1.80
2022-08-20T21:43:25.577Z,1.83
2022-08-20T21:45:52.590Z,1.60
2022-08-20T21:48:19.630Z,2.35
2022-08-20T21:50:46.493Z,2.50
2022-08-20T21:53:13.624Z,4.70
2022-08-20T21:55:40.929Z,3.20
2022-08-20T21:58:08.103Z,3.30
2022-08-20T22:00:47.310Z,3.28
2022-08-20T22:03:15.319Z,2.60
2022-08-20T22:05:42.689Z,2.40
2022-08-20T22:08:10.439Z,3.00
2022-08-20T22:10:37.936Z,2.67
2022-08-20T22:13:05.178Z,2.30
2022-08-20T22:15:32.315Z,2.15
2022-08-20T22:17:59.360Z,2.50
2022-08-20T22:20:26.368Z,2.00
2022-08-20T22:22:53.418Z,2.35
2022-08-20T22:25:20.456Z,2.05
2022-08-20T22:27:47.558Z,2.30
2022-08-20T22:30:14.840Z,1.95
2022-08-20T22:32:51.967Z,1.85
2022-08-20T22:35:20.171Z,1.90
2022-08-20T22:37:47.169Z,1.88
2022-08-20T22:40:14.137Z,2.17
2022-08-20T22:42:41.125Z,1.80
2022-08-20T22:45:11.552Z,1.67
2022-08-20T22:47:42.304Z,2.17
2022-08-20T22:50:10.460Z,1.80
2022-08-20T22:52:38.474Z,1.80
2022-08-20T22:55:06.122Z,1.67
2022-08-20T22:57:34.326Z,1.70
2022-08-20T23:00:01.409Z,1.92
2022-08-20T23:02:28.360Z,1.90
2022-08-20T23:04:55.233Z,1.88
2022-08-20T23:07:22.190Z,2.00
2022-08-20T23:09:49.573Z,1.80
2022-08-20T23:12:16.599Z,1.88
2022-08-20T23:14:43.488Z,2.15
2022-08-20T23:17:13.664Z,2.10
2022-08-20T23:19:41.605Z,2.30
2022-08-20T23:22:08.909Z,2.08
2022-08-20T23:24:36.431Z,2.35
2022-08-20T23:27:05.179Z,2.40
2022-08-20T23:29:32.162Z,2.20
2022-08-20T23:31:59.724Z,1.75
2022-08-20T23:34:27.216Z,2.10
2022-08-20T23:36:54.526Z,1.67
2022-08-20T23:39:22.092Z,2.10
2022-08-20T23:41:49.175Z,2.15
2022-08-20T23:44:25.937Z,2.03
2022-08-20T23:46:58.882Z,2.00
2022-08-20T23:49:27.251Z,1.75
2022-08-20T23:51:54.516Z,2.25
2022-08-20T23:54:21.756Z,2.15
2022-08-20T23:56:49.619Z,2.33
2022-08-20T23:59:16.528Z,2.05
